Time;durP1;ratioP1;P1;durP2;ratioP2;P2;SDS_P1;SDS_P2;PMS_P1;PMS_P2;Temp;Humidity;BMP_temperature;BMP_pressure;BME280_temperature;BME280_humidity;BME280_pressure;Samples;Min_cycle;Max_cycle;Signal;HPM_P1;HPM_P2
2021/10/04 00:00:15;;;;;;;11.73;5.63;;;;;;;;;;5117192;28;20447;-56
2021/10/04 00:02:43;;;;;;;7.27;3.73;;;;;;;;;;5115969;28;20439;-58
2021/10/04 00:05:11;;;;;;;4.33;2.50;;;;;;;;;;5116438;28;20440;-54
2021/10/04 00:07:39;;;;;;;14.17;8.43;;;;;;;;;;5115898;28;20427;-56
2021/10/04 00:10:18;;;;;;;10.77;4.30;;;;;;;;;;5117058;28;20428;-59
2021/10/04 00:12:47;;;;;;;5.73;2.30;;;;;;;;;;5116294;28;20505;-60
2021/10/04 00:15:18;;;;;;;11.80;7.40;;;;;;;;;;5116032;28;20475;-59
2021/10/04 00:17:46;;;;;;;4.03;2.07;;;;;;;;;;5116295;28;20459;-56
2021/10/04 00:20:15;;;;;;;3.30;1.20;;;;;;;;;;5116298;28;20439;-57
2021/10/04 00:22:43;;;;;;;3.43;1.33;;;;;;;;;;5115612;28;20470;-62
2021/10/04 00:25:10;;;;;;;2.40;1.10;;;;;;;;;;5116315;28;20453;-58
2021/10/04 00:28:04;;;;;;;5.80;1.10;;;;;;;;;;5116249;28;20439;-49
2021/10/04 00:30:33;;;;;;;2.97;0.80;;;;;;;;;;5116226;28;20484;-60
2021/10/04 00:33:00;;;;;;;2.77;0.90;;;;;;;;;;5116260;28;20459;-57
2021/10/04 00:35:28;;;;;;;2.73;1.00;;;;;;;;;;5116670;28;20483;-56
2021/10/04 00:37:55;;;;;;;5.90;1.30;;;;;;;;;;5116349;28;20432;-59
2021/10/04 00:40:47;;;;;;;4.13;1.70;;;;;;;;;;5116378;28;20459;-53
2021/10/04 00:43:14;;;;;;;4.83;1.10;;;;;;;;;;5110224;28;20473;-59
2021/10/04 00:45:42;;;;;;;3.13;1.10;;;;;;;;;;5116511;28;20452;-57
2021/10/04 00:48:23;;;;;;;3.43;1.50;;;;;;;;;;5115548;28;20458;-59
2021/10/04 00:50:51;;;;;;;2.50;0.93;;;;;;;;;;5123761;28;20682;-59
2021/10/04 00:53:33;;;;;;;5.70;1.20;;;;;;;;;;5136951;28;20485;-61
2021/10/04 00:56:12;;;;;;;2.60;1.00;;;;;;;;;;5136262;28;20450;-58
2021/10/04 00:58:40;;;;;;;4.20;1.37;;;;;;;;;;5121014;28;20487;-60
2021/10/04 01:01:08;;;;;;;1.97;1.00;;;;;;;;;;5115182;28;20524;-57
2021/10/04 01:03:36;;;;;;;2.10;0.90;;;;;;;;;;5115870;28;20535;-57
2021/10/04 01:06:04;;;;;;;2.03;1.00;;;;;;;;;;5115570;28;20443;-52
2021/10/04 01:08:31;;;;;;;2.80;1.20;;;;;;;;;;5115146;28;20481;-52
2021/10/04 01:11:16;;;;;;;3.20;1.37;;;;;;;;;;5115368;28;20455;-57
2021/10/04 01:13:43;;;;;;;9.00;1.17;;;;;;;;;;5115383;28;20459;-57
2021/10/04 01:16:21;;;;;;;3.80;1.03;;;;;;;;;;5115526;28;20454;-54
2021/10/04 01:18:56;;;;;;;2.93;1.20;;;;;;;;;;5115988;28;20498;-53
2021/10/04 01:21:24;;;;;;;2.47;1.07;;;;;;;;;;5115101;28;20480;-55
2021/10/04 01:23:52;;;;;;;3.13;1.27;;;;;;;;;;5115045;28;20427;-57
2021/10/04 01:26:31;;;;;;;2.40;1.17;;;;;;;;;;5115765;28;20455;-54
2021/10/04 01:28:58;;;;;;;3.93;1.07;;;;;;;;;;5114775;28;20455;-59
2021/10/04 01:31:26;;;;;;;2.43;0.87;;;;;;;;;;5115726;28;20500;-60
2021/10/04 01:33:56;;;;;;;1.80;0.70;;;;;;;;;;5115518;28;20884;-59
2021/10/04 01:36:26;;;;;;;3.00;0.83;;;;;;;;;;5115632;28;20455;-54
2021/10/04 01:38:53;;;;;;;3.43;1.20;;;;;;;;;;5115550;28;20467;-53
2021/10/04 01:41:27;;;;;;;2.40;0.90;;;;;;;;;;5115492;28;20462;-57
2021/10/04 01:43:55;;;;;;;2.20;1.07;;;;;;;;;;5115589;28;20483;-55
2021/10/04 01:46:22;;;;;;;4.97;1.13;;;;;;;;;;5115262;28;20477;-57
2021/10/04 01:48:51;;;;;;;2.47;1.00;;;;;;;;;;5115589;28;20485;-54
2021/10/04 01:51:18;;;;;;;3.50;1.20;;;;;;;;;;5115493;28;20461;-57
2021/10/04 01:53:53;;;;;;;2.90;0.93;;;;;;;;;;5115768;28;20463;-57
2021/10/04 01:56:20;;;;;;;3.27;1.30;;;;;;;;;;5116244;28;20485;-58
2021/10/04 01:58:48;;;;;;;2.17;0.97;;;;;;;;;;5115772;28;20494;-55
2021/10/04 02:01:17;;;;;;;2.30;1.03;;;;;;;;;;5116433;28;20447;-52
2021/10/04 02:03:44;;;;;;;2.57;0.93;;;;;;;;;;5115562;28;20431;-56
2021/10/04 02:06:12;;;;;;;2.60;1.10;;;;;;;;;;5115522;28;20420;-57
2021/10/04 02:08:40;;;;;;;5.83;0.90;;;;;;;;;;5115589;28;20424;-58
2021/10/04 02:11:08;;;;;;;2.40;0.93;;;;;;;;;;5115235;28;20489;-54
2021/10/04 02:13:38;;;;;;;2.53;1.10;;;;;;;;;;5114564;28;20522;-59
2021/10/04 02:19:11;;;;;;;2.83;1.20;;;;;;;;;;5113151;28;20477;-56
2021/10/04 02:21:38;;;;;;;2.10;1.20;;;;;;;;;;5115042;28;20447;-61
2021/10/04 02:24:06;;;;;;;2.40;0.80;;;;;;;;;;5115073;28;20480;-56
2021/10/04 02:26:35;;;;;;;2.93;1.20;;;;;;;;;;5114255;28;20461;-53
2021/10/04 02:29:05;;;;;;;3.00;1.03;;;;;;;;;;5115095;28;20420;-55
2021/10/04 02:31:33;;;;;;;2.10;0.90;;;;;;;;;;5118166;28;20458;-53
2021/10/04 02:34:00;;;;;;;5.10;1.20;;;;;;;;;;5118994;28;20459;-59
2021/10/04 02:36:28;;;;;;;1.97;1.00;;;;;;;;;;5118338;28;20479;-54
2021/10/04 02:38:55;;;;;;;2.80;1.20;;;;;;;;;;5118651;28;20447;-59
2021/10/04 02:41:22;;;;;;;4.00;1.30;;;;;;;;;;5118617;28;20435;-56
2021/10/04 02:46:55;;;;;;;15.13;2.47;;;;;;;;;;5117974;28;20394;-54
2021/10/04 02:49:22;;;;;;;2.23;1.03;;;;;;;;;;5118218;28;20455;-64
2021/10/04 02:51:56;;;;;;;3.47;1.10;;;;;;;;;;5117719;28;20451;-54
2021/10/04 02:54:25;;;;;;;6.43;1.57;;;;;;;;;;5117963;28;20434;-57
2021/10/04 02:56:52;;;;;;;2.53;1.07;;;;;;;;;;5097709;28;20425;-61
2021/10/04 02:59:19;;;;;;;5.10;1.70;;;;;;;;;;5111743;28;20432;-61
2021/10/04 03:01:47;;;;;;;2.30;0.90;;;;;;;;;;5117934;28;20439;-57
2021/10/04 03:04:15;;;;;;;2.27;1.40;;;;;;;;;;5117629;28;20477;-59
2021/10/04 03:06:57;;;;;;;2.77;1.00;;;;;;;;;;5117847;28;20481;-56
2021/10/04 03:09:25;;;;;;;4.13;1.53;;;;;;;;;;5117733;28;20493;-58
2021/10/04 03:11:52;;;;;;;3.23;1.57;;;;;;;;;;5117409;28;20458;-56
2021/10/04 03:14:40;;;;;;;2.80;1.50;;;;;;;;;;5117323;28;20432;-57
2021/10/04 03:17:07;;;;;;;2.50;1.10;;;;;;;;;;5118353;28;20455;-57
2021/10/04 03:19:43;;;;;;;2.53;1.07;;;;;;;;;;5117840;28;20465;-61
2021/10/04 03:22:11;;;;;;;3.77;1.40;;;;;;;;;;5117782;28;20484;-54
2021/10/04 03:24:39;;;;;;;2.87;0.90;;;;;;;;;;5117854;28;20455;-53
2021/10/04 03:27:06;;;;;;;2.60;1.50;;;;;;;;;;5117648;28;20459;-60
2021/10/04 03:29:45;;;;;;;3.53;1.40;;;;;;;;;;5116238;28;20459;-55
2021/10/04 03:32:12;;;;;;;2.73;1.13;;;;;;;;;;5117005;28;20451;-61
2021/10/04 03:34:48;;;;;;;2.40;1.10;;;;;;;;;;5117408;28;20481;-61
2021/10/04 03:37:19;;;;;;;2.57;1.00;;;;;;;;;;5117188;28;20492;-59
2021/10/04 03:39:47;;;;;;;2.30;0.80;;;;;;;;;;5116755;28;20464;-61
2021/10/04 03:42:14;;;;;;;2.70;1.30;;;;;;;;;;5117056;28;20440;-58
2021/10/04 03:44:41;;;;;;;1.90;0.90;;;;;;;;;;5117081;28;20436;-57
2021/10/04 03:47:09;;;;;;;3.00;1.13;;;;;;;;;;5117430;28;20436;-61
2021/10/04 03:49:38;;;;;;;4.10;1.17;;;;;;;;;;5116360;28;20469;-61
2021/10/04 03:52:07;;;;;;;2.27;1.03;;;;;;;;;;5116361;28;20456;-61
2021/10/04 03:54:53;;;;;;;3.90;1.70;;;;;;;;;;5117034;28;20464;-57
2021/10/04 03:57:21;;;;;;;2.37;1.43;;;;;;;;;;5116521;28;20462;-61
2021/10/04 03:59:48;;;;;;;2.23;1.10;;;;;;;;;;5116317;28;20485;-53
2021/10/04 04:02:16;;;;;;;6.33;1.53;;;;;;;;;;5116280;28;20432;-59
2021/10/04 04:05:00;;;;;;;4.03;1.13;;;;;;;;;;5116556;28;20423;-55
2021/10/04 04:07:28;;;;;;;3.00;1.40;;;;;;;;;;5116669;28;20508;-57
2021/10/04 04:09:56;;;;;;;3.60;2.20;;;;;;;;;;5116738;28;20467;-59
2021/10/04 04:15:26;;;;;;;7.17;1.40;;;;;;;;;;5114276;28;20498;-54
2021/10/04 04:17:53;;;;;;;4.30;1.33;;;;;;;;;;5115814;28;20459;-58
2021/10/04 04:20:23;;;;;;;4.63;1.20;;;;;;;;;;5116586;28;20721;-59
2021/10/04 04:22:52;;;;;;;5.00;1.73;;;;;;;;;;5116327;28;20451;-61
2021/10/04 04:25:21;;;;;;;3.33;1.10;;;;;;;;;;5116221;28;20443;-56
2021/10/04 04:28:03;;;;;;;5.97;1.50;;;;;;;;;;5115911;28;20438;-56
2021/10/04 04:30:33;;;;;;;2.63;1.17;;;;;;;;;;5115469;28;20436;-60
2021/10/04 04:33:08;;;;;;;4.20;1.77;;;;;;;;;;5114807;28;20481;-59
2021/10/04 04:35:42;;;;;;;3.00;1.70;;;;;;;;;;5115127;28;20478;-60
2021/10/04 04:38:11;;;;;;;3.20;1.23;;;;;;;;;;5115817;28;20469;-59
2021/10/04 04:40:56;;;;;;;2.33;1.30;;;;;;;;;;5116255;28;20500;-58
2021/10/04 04:43:23;;;;;;;12.00;1.60;;;;;;;;;;5116017;28;20431;-57
2021/10/04 04:45:51;;;;;;;3.43;1.37;;;;;;;;;;5114722;28;20440;-57
2021/10/04 04:48:19;;;;;;;4.10;1.40;;;;;;;;;;5107677;28;20459;-58
2021/10/04 04:50:47;;;;;;;3.13;1.47;;;;;;;;;;5095404;28;20452;-59
2021/10/04 04:53:16;;;;;;;2.50;1.30;;;;;;;;;;5094432;28;20499;-59
2021/10/04 04:55:44;;;;;;;9.87;1.57;;;;;;;;;;5094393;28;20472;-55
2021/10/04 04:58:12;;;;;;;5.80;4.03;;;;;;;;;;5095422;28;20437;-58
2021/10/04 05:00:41;;;;;;;2.40;1.00;;;;;;;;;;5094394;28;20450;-61
2021/10/04 05:03:09;;;;;;;3.90;1.70;;;;;;;;;;5094802;28;20444;-59
2021/10/04 05:05:36;;;;;;;4.07;1.40;;;;;;;;;;5097385;28;20451;-61
2021/10/04 05:08:11;;;;;;;4.20;1.70;;;;;;;;;;5114778;28;20447;-59
2021/10/04 05:10:41;;;;;;;9.30;1.50;;;;;;;;;;5111391;28;20490;-60
2021/10/04 05:13:08;;;;;;;4.90;1.43;;;;;;;;;;5114376;28;20443;-61
2021/10/04 05:15:36;;;;;;;3.33;1.80;;;;;;;;;;5114380;28;20510;-60
2021/10/04 05:18:05;;;;;;;3.30;1.90;;;;;;;;;;5113977;28;20469;-61
2021/10/04 05:20:42;;;;;;;2.70;1.33;;;;;;;;;;5113348;28;20432;-59
2021/10/04 05:23:16;;;;;;;3.43;1.70;;;;;;;;;;5114192;28;20446;-58
2021/10/04 05:25:45;;;;;;;2.50;1.30;;;;;;;;;;5113962;28;20431;-55
2021/10/04 05:28:14;;;;;;;4.13;1.33;;;;;;;;;;5113136;28;20455;-60
2021/10/04 05:30:42;;;;;;;5.73;2.80;;;;;;;;;;5108986;28;20494;-58
2021/10/04 05:33:09;;;;;;;4.57;2.17;;;;;;;;;;5104332;28;20483;-55
2021/10/04 05:35:42;;;;;;;3.20;1.60;;;;;;;;;;5093091;28;20485;-57
2021/10/04 05:38:10;;;;;;;4.47;1.60;;;;;;;;;;5093576;28;20456;-59
2021/10/04 05:40:37;;;;;;;4.30;1.33;;;;;;;;;;5113407;28;20448;-56
2021/10/04 05:43:24;;;;;;;5.30;1.70;;;;;;;;;;5113956;28;20447;-57
2021/10/04 05:46:08;;;;;;;3.67;1.17;;;;;;;;;;5112840;28;20492;-52
2021/10/04 05:48:38;;;;;;;8.87;1.67;;;;;;;;;;5111402;28;20470;-56
2021/10/04 05:51:09;;;;;;;5.80;1.63;;;;;;;;;;5113410;28;20445;-59
2021/10/04 05:53:38;;;;;;;3.80;1.60;;;;;;;;;;5113284;28;20443;-56
2021/10/04 05:56:07;;;;;;;11.67;1.90;;;;;;;;;;5112985;28;20486;-57
2021/10/04 05:58:34;;;;;;;4.30;1.77;;;;;;;;;;5112239;28;20497;-61
2021/10/04 06:01:03;;;;;;;4.23;1.90;;;;;;;;;;5112781;28;20447;-60
2021/10/04 06:03:36;;;;;;;5.13;2.17;;;;;;;;;;5112228;28;20447;-56
2021/10/04 06:06:03;;;;;;;4.97;2.40;;;;;;;;;;5116580;28;20494;-59
2021/10/04 06:08:31;;;;;;;7.83;2.70;;;;;;;;;;5116634;28;20539;-61
2021/10/04 06:10:58;;;;;;;6.63;1.40;;;;;;;;;;5116986;28;20496;-57
2021/10/04 06:13:26;;;;;;;2.83;1.30;;;;;;;;;;5116854;28;20477;-59
2021/10/04 06:15:54;;;;;;;4.03;1.40;;;;;;;;;;5116742;28;20478;-58
2021/10/04 06:18:25;;;;;;;7.63;2.20;;;;;;;;;;5116049;28;20451;-57
2021/10/04 06:20:53;;;;;;;4.90;1.47;;;;;;;;;;5116880;28;20454;-59
2021/10/04 06:23:20;;;;;;;2.70;1.20;;;;;;;;;;5116046;28;20434;-61
2021/10/04 06:25:49;;;;;;;2.70;1.37;;;;;;;;;;5115682;28;20494;-56
2021/10/04 06:28:18;;;;;;;4.37;1.73;;;;;;;;;;5104043;28;20446;-58
2021/10/04 06:30:49;;;;;;;8.60;1.90;;;;;;;;;;5116731;28;20570;-54
2021/10/04 06:33:16;;;;;;;3.13;1.57;;;;;;;;;;5116473;28;20903;-61
2021/10/04 06:35:52;;;;;;;3.03;1.50;;;;;;;;;;5116654;28;20512;-59
2021/10/04 06:38:19;;;;;;;2.97;1.60;;;;;;;;;;5115764;28;20423;-58
2021/10/04 06:40:56;;;;;;;2.47;1.10;;;;;;;;;;5115895;28;20485;-58
2021/10/04 06:43:23;;;;;;;3.87;1.10;;;;;;;;;;5116245;28;20451;-60
2021/10/04 06:45:55;;;;;;;4.77;1.40;;;;;;;;;;5116288;28;20459;-57
2021/10/04 06:48:38;;;;;;;4.50;2.53;;;;;;;;;;5095584;28;20440;-61
2021/10/04 06:51:10;;;;;;;3.40;1.47;;;;;;;;;;5114341;28;20500;-58
2021/10/04 06:53:38;;;;;;;3.37;1.20;;;;;;;;;;5115132;28;20447;-56
2021/10/04 06:56:27;;;;;;;3.43;1.53;;;;;;;;;;5114901;28;20478;-59
2021/10/04 06:58:55;;;;;;;8.83;1.40;;;;;;;;;;5115484;28;20470;-63
2021/10/04 07:01:23;;;;;;;4.40;1.43;;;;;;;;;;5114602;28;20501;-56
2021/10/04 07:03:52;;;;;;;3.90;1.30;;;;;;;;;;5115401;28;20463;-54
2021/10/04 07:06:23;;;;;;;3.47;1.50;;;;;;;;;;5113964;28;20446;-61
2021/10/04 07:08:50;;;;;;;4.37;1.30;;;;;;;;;;5115530;28;20538;-59
2021/10/04 07:11:18;;;;;;;3.63;1.33;;;;;;;;;;5122648;28;20470;-54
2021/10/04 07:13:45;;;;;;;2.73;1.40;;;;;;;;;;5135041;28;20458;-59
2021/10/04 07:16:13;;;;;;;5.30;2.20;;;;;;;;;;5135602;28;20488;-55
2021/10/04 07:18:41;;;;;;;4.93;1.60;;;;;;;;;;5135826;28;20454;-60
2021/10/04 07:21:08;;;;;;;3.40;1.50;;;;;;;;;;5136314;28;20519;-57
2021/10/04 07:23:38;;;;;;;7.33;1.70;;;;;;;;;;5135353;28;20465;-60
2021/10/04 07:26:06;;;;;;;3.07;1.30;;;;;;;;;;5134712;28;20439;-55
2021/10/04 07:28:37;;;;;;;4.30;2.10;;;;;;;;;;5134646;28;20485;-58
2021/10/04 07:31:06;;;;;;;3.97;2.00;;;;;;;;;;5134465;28;20477;-60
2021/10/04 07:33:36;;;;;;;5.93;1.60;;;;;;;;;;5135785;28;20450;-60
2021/10/04 07:36:06;;;;;;;8.27;4.23;;;;;;;;;;5135467;28;20498;-59
2021/10/04 07:38:34;;;;;;;4.83;1.73;;;;;;;;;;5133963;28;20446;-60
2021/10/04 07:41:04;;;;;;;3.57;1.30;;;;;;;;;;5134638;28;20454;-57
2021/10/04 07:43:32;;;;;;;8.13;3.10;;;;;;;;;;5133517;28;20446;-55
2021/10/04 07:46:01;;;;;;;4.23;1.80;;;;;;;;;;5134132;28;20427;-60
2021/10/04 07:48:41;;;;;;;8.40;2.83;;;;;;;;;;5134773;28;20423;-55
2021/10/04 07:51:11;;;;;;;2.93;1.30;;;;;;;;;;5134419;28;20657;-58
2021/10/04 07:53:40;;;;;;;4.30;1.43;;;;;;;;;;5139387;27;20462;-58
2021/10/04 07:56:09;;;;;;;2.97;1.40;;;;;;;;;;5134058;28;20486;-58
2021/10/04 07:58:36;;;;;;;4.53;1.80;;;;;;;;;;5134566;28;20459;-55
2021/10/04 08:01:12;;;;;;;3.67;1.57;;;;;;;;;;5133222;28;20590;-57
2021/10/04 08:03:40;;;;;;;6.00;1.70;;;;;;;;;;5133959;28;20462;-56
2021/10/04 08:06:09;;;;;;;6.67;1.80;;;;;;;;;;5133913;28;20434;-58
2021/10/04 08:09:10;;;;;;;5.20;1.50;;;;;;;;;;5133946;28;20486;-59
2021/10/04 08:11:39;;;;;;;3.60;1.40;;;;;;;;;;5127685;28;20470;-61
2021/10/04 08:14:06;;;;;;;3.50;1.53;;;;;;;;;;5132851;28;20482;-51
2021/10/04 08:16:34;;;;;;;5.10;1.67;;;;;;;;;;5133964;28;20486;-60
2021/10/04 08:19:02;;;;;;;6.43;1.93;;;;;;;;;;5133628;28;20442;-57
2021/10/04 08:21:37;;;;;;;6.40;1.73;;;;;;;;;;5134017;28;20510;-58
2021/10/04 08:24:05;;;;;;;4.20;2.20;;;;;;;;;;5132250;28;20486;-56
2021/10/04 08:26:33;;;;;;;6.63;4.60;;;;;;;;;;5132968;28;20472;-62
2021/10/04 08:29:02;;;;;;;7.60;3.30;;;;;;;;;;5132032;28;20477;-60
2021/10/04 08:31:32;;;;;;;5.93;1.57;;;;;;;;;;5132125;28;20462;-59
2021/10/04 08:34:01;;;;;;;5.07;2.20;;;;;;;;;;5133013;28;20481;-60
2021/10/04 08:36:47;;;;;;;4.57;1.67;;;;;;;;;;5133570;28;20474;-59
2021/10/04 08:39:21;;;;;;;2.23;1.10;;;;;;;;;;5130252;28;20454;-60
2021/10/04 08:41:51;;;;;;;4.27;1.63;;;;;;;;;;5112509;28;20439;-61
2021/10/04 08:44:39;;;;;;;3.97;1.20;;;;;;;;;;5112515;28;20642;-62
2021/10/04 08:47:09;;;;;;;3.03;1.20;;;;;;;;;;5113249;28;20482;-57
2021/10/04 08:49:37;;;;;;;5.07;2.07;;;;;;;;;;5112351;28;20501;-60
2021/10/04 08:52:05;;;;;;;4.43;1.40;;;;;;;;;;5112225;28;20518;-59
2021/10/04 08:54:43;;;;;;;4.10;2.10;;;;;;;;;;5110081;28;20448;-57
2021/10/04 08:57:18;;;;;;;8.43;1.70;;;;;;;;;;5112734;28;20531;-62
2021/10/04 08:59:48;;;;;;;2.23;1.00;;;;;;;;;;5111660;28;20510;-55
2021/10/04 09:02:30;;;;;;;2.30;1.00;;;;;;;;;;5109983;28;20485;-57
2021/10/04 09:05:11;;;;;;;6.40;1.50;;;;;;;;;;5111132;28;20440;-59
2021/10/04 09:07:41;;;;;;;4.70;3.13;;;;;;;;;;5111868;28;20451;-59
2021/10/04 09:10:09;;;;;;;12.70;1.60;;;;;;;;;;5110981;28;20465;-60
2021/10/04 09:12:51;;;;;;;5.40;1.37;;;;;;;;;;5110718;28;20459;-60
2021/10/04 09:15:29;;;;;;;4.27;1.40;;;;;;;;;;5110752;28;20451;-56
2021/10/04 09:17:59;;;;;;;3.57;1.67;;;;;;;;;;5111931;28;20488;-59
2021/10/04 09:20:50;;;;;;;137.17;90.17;;;;;;;;;;5111417;28;20492;-56
2021/10/04 09:23:32;;;;;;;191.83;106.23;;;;;;;;;;5091582;28;20460;-60
2021/10/04 09:26:05;;;;;;;5.03;1.40;;;;;;;;;;5099317;28;20451;-60
2021/10/04 09:28:33;;;;;;;3.57;1.77;;;;;;;;;;5110959;28;20452;-56
2021/10/04 09:31:23;;;;;;;7.40;1.60;;;;;;;;;;5111246;28;20459;-58
2021/10/04 09:34:01;;;;;;;6.33;2.17;;;;;;;;;;5111197;28;20469;-59
2021/10/04 09:36:28;;;;;;;4.13;1.63;;;;;;;;;;5111138;28;20476;-56
2021/10/04 09:39:14;;;;;;;5.67;3.00;;;;;;;;;;5112590;28;20437;-58
2021/10/04 09:41:57;;;;;;;4.23;2.27;;;;;;;;;;5094790;28;20456;-59
2021/10/04 09:44:43;;;;;;;3.67;1.70;;;;;;;;;;5092618;28;20475;-62
2021/10/04 09:47:16;;;;;;;4.10;2.00;;;;;;;;;;5094403;28;20483;-53
2021/10/04 09:49:58;;;;;;;5.33;2.00;;;;;;;;;;5094510;28;20456;-60
2021/10/04 09:52:45;;;;;;;4.10;1.57;;;;;;;;;;5094626;28;20439;-55
2021/10/04 09:55:32;;;;;;;11.37;3.70;;;;;;;;;;5092398;28;20456;-53
2021/10/04 09:58:00;;;;;;;3.60;1.70;;;;;;;;;;5094353;28;20491;-60
2021/10/04 10:00:29;;;;;;;7.00;1.77;;;;;;;;;;5095153;28;20444;-55
2021/10/04 10:03:01;;;;;;;3.97;1.97;;;;;;;;;;5093746;28;20452;-56
2021/10/04 10:05:34;;;;;;;3.90;1.63;;;;;;;;;;5096031;28;20482;-61
2021/10/04 10:08:02;;;;;;;8.30;3.80;;;;;;;;;;5094410;28;20454;-59
2021/10/04 10:10:42;;;;;;;3.10;1.60;;;;;;;;;;5093824;28;20456;-61
2021/10/04 10:13:12;;;;;;;5.10;1.60;;;;;;;;;;5095072;28;20513;-61
2021/10/04 10:15:41;;;;;;;6.50;1.93;;;;;;;;;;5094392;28;20971;-57
2021/10/04 10:18:17;;;;;;;4.07;1.20;;;;;;;;;;5094753;28;20513;-58
2021/10/04 10:26:27;;;;;;;4.47;1.10;;;;;;;;;;5103572;28;20459;-55
2021/10/04 10:29:20;;;;;;;4.30;1.80;;;;;;;;;;5114251;28;20216;-58
2021/10/04 10:32:06;;;;;;;2.30;1.00;;;;;;;;;;5094019;28;20474;-57
2021/10/04 10:34:54;;;;;;;6.93;1.70;;;;;;;;;;5113696;28;20519;-57
2021/10/04 10:37:25;;;;;;;3.00;1.30;;;;;;;;;;5113765;28;20565;-57
2021/10/04 10:39:54;;;;;;;2.20;1.20;;;;;;;;;;5110429;28;20459;-57
2021/10/04 10:42:22;;;;;;;3.47;1.57;;;;;;;;;;5113058;28;20447;-57
2021/10/04 10:47:41;;;;;;;2.50;1.20;;;;;;;;;;5131031;28;20501;-58
2021/10/04 10:50:26;;;;;;;4.40;1.47;;;;;;;;;;5116193;28;20433;-59
2021/10/04 10:53:04;;;;;;;6.30;1.00;;;;;;;;;;5134270;28;20447;-60
2021/10/04 10:55:34;;;;;;;6.23;2.43;;;;;;;;;;5132716;28;20435;-56
2021/10/04 10:58:21;;;;;;;4.30;1.37;;;;;;;;;;5133214;28;20486;-61
2021/10/04 11:01:13;;;;;;;6.10;1.73;;;;;;;;;;5135068;28;20461;-58
2021/10/04 11:06:48;;;;;;;6.20;2.50;;;;;;;;;;5130931;28;20453;-57
2021/10/04 11:09:25;;;;;;;4.03;1.47;;;;;;;;;;5119430;28;20454;-57
2021/10/04 11:11:58;;;;;;;2.80;1.23;;;;;;;;;;5133710;28;20466;-57
2021/10/04 11:14:25;;;;;;;2.83;1.50;;;;;;;;;;5133794;28;20454;-58
2021/10/04 11:17:05;;;;;;;5.33;2.10;;;;;;;;;;5133007;28;20450;-57
2021/10/04 11:19:39;;;;;;;10.63;2.20;;;;;;;;;;5132988;28;20446;-58
2021/10/04 11:22:30;;;;;;;9.30;1.80;;;;;;;;;;5128784;28;20554;-59
2021/10/04 11:25:02;;;;;;;3.83;2.30;;;;;;;;;;5132282;28;20464;-57
2021/10/04 11:27:53;;;;;;;2.53;1.27;;;;;;;;;;5126323;28;20485;-57
2021/10/04 11:30:20;;;;;;;4.63;1.43;;;;;;;;;;5130685;28;20477;-59
2021/10/04 11:33:03;;;;;;;8.20;1.50;;;;;;;;;;5131720;28;20447;-60
2021/10/04 11:35:31;;;;;;;3.40;1.77;;;;;;;;;;5130657;28;20442;-54
2021/10/04 11:38:06;;;;;;;3.77;1.83;;;;;;;;;;5130788;28;20521;-55
2021/10/04 11:40:36;;;;;;;5.00;2.33;;;;;;;;;;5132391;28;20616;-58
2021/10/04 11:43:05;;;;;;;5.67;2.10;;;;;;;;;;5131997;28;20470;-62
2021/10/04 11:45:33;;;;;;;6.37;3.07;;;;;;;;;;5130186;28;20473;-56
2021/10/04 11:48:01;;;;;;;5.33;1.87;;;;;;;;;;5130476;28;20450;-59
2021/10/04 11:50:28;;;;;;;5.47;1.63;;;;;;;;;;5129616;28;20455;-59
2021/10/04 11:52:57;;;;;;;3.93;1.63;;;;;;;;;;5130248;28;20443;-57
2021/10/04 11:55:27;;;;;;;2.70;1.00;;;;;;;;;;5132014;28;20468;-53
2021/10/04 11:57:57;;;;;;;3.50;0.90;;;;;;;;;;5131561;28;20541;-60
2021/10/04 12:00:25;;;;;;;3.80;1.47;;;;;;;;;;5131952;28;20536;-56
2021/10/04 12:03:11;;;;;;;2.10;1.00;;;;;;;;;;5131543;28;20492;-62
2021/10/04 12:05:52;;;;;;;4.70;1.40;;;;;;;;;;5115422;28;20499;-58
2021/10/04 12:08:25;;;;;;;3.97;1.33;;;;;;;;;;5105254;28;20483;-58
2021/10/04 12:10:57;;;;;;;3.97;1.87;;;;;;;;;;5109876;28;20452;-56
2021/10/04 12:13:26;;;;;;;3.67;1.10;;;;;;;;;;5109928;28;20452;-60
2021/10/04 12:16:00;;;;;;;2.63;1.00;;;;;;;;;;5109813;28;20432;-59
2021/10/04 12:18:28;;;;;;;4.53;1.27;;;;;;;;;;5109843;28;20467;-59
2021/10/04 12:21:11;;;;;;;3.40;1.60;;;;;;;;;;5109962;28;20515;-59
2021/10/04 12:23:40;;;;;;;4.20;1.17;;;;;;;;;;5096110;28;20482;-61
2021/10/04 12:28:08;;;;;;;3.70;1.27;;;;;;;;;;5164867;27;20520;-62
2021/10/04 12:30:52;;;;;;;3.50;1.23;;;;;;;;;;5149248;28;20457;-60
2021/10/04 12:33:21;;;;;;;5.70;2.37;;;;;;;;;;5149517;28;20454;-62
2021/10/04 12:35:55;;;;;;;5.20;2.10;;;;;;;;;;5150420;28;20501;-55
2021/10/04 12:38:41;;;;;;;5.37;1.30;;;;;;;;;;5144249;28;20517;-61
2021/10/04 12:41:11;;;;;;;8.00;2.27;;;;;;;;;;5137103;28;20881;-57
2021/10/04 12:43:48;;;;;;;5.80;1.93;;;;;;;;;;5138806;28;20450;-58
2021/10/04 12:46:24;;;;;;;3.93;1.90;;;;;;;;;;5147135;28;20518;-60
2021/10/04 12:48:55;;;;;;;4.13;1.60;;;;;;;;;;5129301;28;20454;-58
2021/10/04 12:51:27;;;;;;;3.40;1.50;;;;;;;;;;5134060;28;20800;-60
2021/10/04 12:53:56;;;;;;;2.67;1.00;;;;;;;;;;5149678;28;20460;-55
2021/10/04 12:56:24;;;;;;;4.47;1.50;;;;;;;;;;5143263;28;20476;-59
2021/10/04 12:59:04;;;;;;;3.07;1.97;;;;;;;;;;5149436;28;20458;-58
2021/10/04 13:01:40;;;;;;;3.30;1.47;;;;;;;;;;5143240;28;20479;-59
2021/10/04 13:04:11;;;;;;;3.60;1.97;;;;;;;;;;5149019;28;20449;-60
2021/10/04 13:06:39;;;;;;;6.77;1.40;;;;;;;;;;5148863;28;20507;-56
2021/10/04 13:09:08;;;;;;;3.93;1.47;;;;;;;;;;5149309;28;20455;-59
2021/10/04 13:11:36;;;;;;;3.83;1.23;;;;;;;;;;5149744;28;20461;-57
2021/10/04 13:14:12;;;;;;;7.93;2.07;;;;;;;;;;5149957;28;20446;-57
2021/10/04 13:16:47;;;;;;;2.37;1.07;;;;;;;;;;5150917;28;20442;-55
2021/10/04 13:19:16;;;;;;;4.77;1.73;;;;;;;;;;5150207;28;21314;-61
2021/10/04 13:21:52;;;;;;;10.90;8.33;;;;;;;;;;5147721;28;20449;-53
2021/10/04 13:24:31;;;;;;;4.97;2.83;;;;;;;;;;5149105;28;20521;-51
2021/10/04 13:27:04;;;;;;;4.53;1.70;;;;;;;;;;5140129;28;20514;-60
2021/10/04 13:29:34;;;;;;;3.70;2.43;;;;;;;;;;5128653;28;20472;-58
2021/10/04 13:32:01;;;;;;;4.60;1.30;;;;;;;;;;5136668;28;20461;-54
2021/10/04 13:34:29;;;;;;;5.00;1.70;;;;;;;;;;5150897;28;20467;-54
2021/10/04 13:36:57;;;;;;;5.70;2.60;;;;;;;;;;5150791;28;20498;-56
2021/10/04 13:39:25;;;;;;;5.00;3.27;;;;;;;;;;5137083;28;20454;-60
2021/10/04 13:41:54;;;;;;;2.63;1.40;;;;;;;;;;5136698;28;20454;-58
2021/10/04 13:44:21;;;;;;;3.13;1.33;;;;;;;;;;5136736;28;20461;-57
2021/10/04 13:46:54;;;;;;;8.40;2.87;;;;;;;;;;5138193;28;20488;-56
2021/10/04 13:49:25;;;;;;;4.30;2.17;;;;;;;;;;5136848;28;20444;-57
2021/10/04 13:51:58;;;;;;;8.20;6.13;;;;;;;;;;5126945;28;20458;-59
2021/10/04 13:54:25;;;;;;;10.93;7.23;;;;;;;;;;5134547;28;20530;-56
2021/10/04 13:56:56;;;;;;;8.23;3.40;;;;;;;;;;5129521;28;20450;-56
2021/10/04 14:02:28;;;;;;;3.90;1.27;;;;;;;;;;5133540;28;20420;-53
2021/10/04 14:05:10;;;;;;;5.30;2.10;;;;;;;;;;5121624;28;20458;-58
2021/10/04 14:07:59;;;;;;;5.60;2.60;;;;;;;;;;5131913;28;20486;-59
2021/10/04 14:10:27;;;;;;;3.40;1.20;;;;;;;;;;5135978;28;20458;-55
2021/10/04 14:12:55;;;;;;;5.33;2.57;;;;;;;;;;5111724;28;20470;-53
2021/10/04 14:15:44;;;;;;;6.20;2.30;;;;;;;;;;5131221;28;20454;-56
2021/10/04 14:18:18;;;;;;;4.60;2.90;;;;;;;;;;5088947;28;20476;-57
2021/10/04 14:20:46;;;;;;;5.20;1.37;;;;;;;;;;5069820;28;20453;-54
2021/10/04 14:23:14;;;;;;;5.70;2.87;;;;;;;;;;5057863;28;20456;-60
2021/10/04 14:25:50;;;;;;;8.07;2.70;;;;;;;;;;5080994;28;20787;-56
2021/10/04 14:28:35;;;;;;;5.27;2.03;;;;;;;;;;5062782;28;20486;-60
2021/10/04 14:34:32;;;;;;;7.10;5.30;;;;;;;;;;5064768;28;20437;-57
2021/10/04 14:37:08;;;;;;;4.60;2.03;;;;;;;;;;5074149;28;20449;-55
2021/10/04 14:39:53;;;;;;;20.33;8.63;;;;;;;;;;5067664;28;20459;-54
2021/10/04 14:42:27;;;;;;;3.10;1.40;;;;;;;;;;5054161;28;20461;-58
2021/10/04 14:44:56;;;;;;;2.90;1.67;;;;;;;;;;5065385;28;20441;-54
2021/10/04 14:47:39;;;;;;;4.00;1.90;;;;;;;;;;5074554;28;20519;-60
2021/10/04 14:50:12;;;;;;;2.77;1.40;;;;;;;;;;5073934;28;20471;-59
2021/10/04 14:52:41;;;;;;;5.47;2.13;;;;;;;;;;5073978;28;20465;-58
2021/10/04 14:55:13;;;;;;;6.67;2.00;;;;;;;;;;5074331;28;20453;-56
2021/10/04 14:57:41;;;;;;;4.60;1.67;;;;;;;;;;5074777;28;20463;-58
2021/10/04 15:00:36;;;;;;;3.03;1.20;;;;;;;;;;5075434;28;20469;-56
2021/10/04 15:03:05;;;;;;;4.43;1.30;;;;;;;;;;5076039;28;20449;-57
2021/10/04 15:05:52;;;;;;;4.03;1.20;;;;;;;;;;5075078;28;20552;-59
2021/10/04 15:08:38;;;;;;;6.20;2.90;;;;;;;;;;5074636;28;20500;-56
2021/10/04 15:17:15;;;;;;;4.17;2.00;;;;;;;;;;5094257;28;20493;-60
2021/10/04 15:20:13;;;;;;;5.03;2.40;;;;;;;;;;5094726;28;20487;-58
2021/10/04 15:25:58;;;;;;;7.73;3.67;;;;;;;;;;5107354;28;20460;-57
2021/10/04 15:28:28;;;;;;;9.97;5.47;;;;;;;;;;5093578;28;20512;-59
2021/10/04 15:31:03;;;;;;;11.07;6.20;;;;;;;;;;5094659;28;20505;-62
2021/10/04 15:33:37;;;;;;;3.70;1.80;;;;;;;;;;5094867;28;20535;-49
2021/10/04 15:36:07;;;;;;;3.00;1.43;;;;;;;;;;5093562;28;20499;-59
2021/10/04 15:38:39;;;;;;;4.50;1.53;;;;;;;;;;5094967;28;20452;-58
2021/10/04 15:41:08;;;;;;;4.27;1.33;;;;;;;;;;5094361;28;20527;-59
2021/10/04 15:43:35;;;;;;;2.93;1.27;;;;;;;;;;5088194;28;20511;-56
2021/10/04 15:46:19;;;;;;;3.77;1.80;;;;;;;;;;5085065;28;20441;-56
2021/10/04 15:48:46;;;;;;;7.03;2.00;;;;;;;;;;5109870;28;20515;-61
2021/10/04 15:51:15;;;;;;;10.67;5.20;;;;;;;;;;5108874;28;20470;-57